sensor_id;sensor_type;location;lat;lon;timestamp;P1;durP1;ratioP1;P2;durP2;ratioP2
14247;SDS011;7208;49.826;6.004;2023-06-14T00:01:21;1.37;;;1.27;;
14247;SDS011;7208;49.826;6.004;2023-06-14T00:03:47;0.77;;;0.77;;
14247;SDS011;7208;49.826;6.004;2023-06-14T00:06:14;1.50;;;1.23;;
14247;SDS011;7208;49.826;6.004;2023-06-14T00:08:40;1.83;;;1.30;;
14247;SDS011;7208;49.826;6.004;2023-06-14T00:11:09;1.10;;;1.10;;
14247;SDS011;7208;49.826;6.004;2023-06-14T00:13:35;1.97;;;1.60;;
14247;SDS011;7208;49.826;6.004;2023-06-14T00:16:04;1.20;;;1.20;;
14247;SDS011;7208;49.826;6.004;2023-06-14T00:18:30;1.43;;;1.33;;
14247;SDS011;7208;49.826;6.004;2023-06-14T00:20:56;1.60;;;1.40;;
14247;SDS011;7208;49.826;6.004;2023-06-14T00:23:22;1.43;;;1.33;;
14247;SDS011;7208;49.826;6.004;2023-06-14T00:25:51;1.20;;;1.10;;
14247;SDS011;7208;49.826;6.004;2023-06-14T00:28:17;1.87;;;1.53;;
14247;SDS011;7208;49.826;6.004;2023-06-14T00:30:43;1.20;;;1.10;;
14247;SDS011;7208;49.826;6.004;2023-06-14T00:33:11;1.77;;;1.40;;
14247;SDS011;7208;49.826;6.004;2023-06-14T00:35:37;1.07;;;1.07;;
14247;SDS011;7208;49.826;6.004;2023-06-14T00:38:03;0.73;;;0.70;;
14247;SDS011;7208;49.826;6.004;2023-06-14T00:40:29;1.40;;;1.30;;
14247;SDS011;7208;49.826;6.004;2023-06-14T00:42:55;1.27;;;1.17;;
14247;SDS011;7208;49.826;6.004;2023-06-14T00:45:21;1.03;;;0.93;;
14247;SDS011;7208;49.826;6.004;2023-06-14T00:47:47;1.27;;;1.17;;
14247;SDS011;7208;49.826;6.004;2023-06-14T00:50:16;1.27;;;1.17;;
14247;SDS011;7208;49.826;6.004;2023-06-14T00:52:42;1.37;;;1.27;;
14247;SDS011;7208;49.826;6.004;2023-06-14T00:55:08;1.70;;;1.00;;
14247;SDS011;7208;49.826;6.004;2023-06-14T00:57:34;0.93;;;0.93;;
14247;SDS011;7208;49.826;6.004;2023-06-14T01:00:03;1.27;;;1.20;;
14247;SDS011;7208;49.826;6.004;2023-06-14T01:02:33;1.77;;;1.43;;
14247;SDS011;7208;49.826;6.004;2023-06-14T01:04:59;1.17;;;1.07;;
14247;SDS011;7208;49.826;6.004;2023-06-14T01:12:35;1.37;;;1.27;;
14247;SDS011;7208;49.826;6.004;2023-06-14T01:15:02;1.77;;;1.37;;
14247;SDS011;7208;49.826;6.004;2023-06-14T01:17:29;1.53;;;1.43;;
14247;SDS011;7208;49.826;6.004;2023-06-14T01:19:58;1.30;;;1.20;;
14247;SDS011;7208;49.826;6.004;2023-06-14T01:22:27;1.27;;;1.17;;
14247;SDS011;7208;49.826;6.004;2023-06-14T01:24:54;1.43;;;1.33;;
14247;SDS011;7208;49.826;6.004;2023-06-14T01:27:26;1.50;;;1.40;;
14247;SDS011;7208;49.826;6.004;2023-06-14T01:29:53;1.33;;;1.23;;
14247;SDS011;7208;49.826;6.004;2023-06-14T01:32:21;1.50;;;1.40;;
14247;SDS011;7208;49.826;6.004;2023-06-14T01:34:48;1.60;;;1.50;;
14247;SDS011;7208;49.826;6.004;2023-06-14T01:37:14;1.63;;;1.33;;
14247;SDS011;7208;49.826;6.004;2023-06-14T01:39:41;1.17;;;1.07;;
14247;SDS011;7208;49.826;6.004;2023-06-14T01:42:08;1.47;;;1.37;;
14247;SDS011;7208;49.826;6.004;2023-06-14T01:44:39;1.50;;;1.40;;
14247;SDS011;7208;49.826;6.004;2023-06-14T01:47:06;1.37;;;1.27;;
14247;SDS011;7208;49.826;6.004;2023-06-14T01:49:34;2.03;;;1.73;;
14247;SDS011;7208;49.826;6.004;2023-06-14T01:52:00;1.33;;;1.23;;
14247;SDS011;7208;49.826;6.004;2023-06-14T01:54:26;1.50;;;1.40;;
14247;SDS011;7208;49.826;6.004;2023-06-14T01:56:54;1.20;;;1.10;;
14247;SDS011;7208;49.826;6.004;2023-06-14T01:59:21;1.60;;;1.50;;
14247;SDS011;7208;49.826;6.004;2023-06-14T02:01:47;1.40;;;1.30;;
14247;SDS011;7208;49.826;6.004;2023-06-14T02:04:13;1.30;;;1.20;;
14247;SDS011;7208;49.826;6.004;2023-06-14T02:06:39;1.33;;;1.17;;
14247;SDS011;7208;49.826;6.004;2023-06-14T02:09:05;1.60;;;1.50;;
14247;SDS011;7208;49.826;6.004;2023-06-14T02:11:31;1.43;;;1.33;;
14247;SDS011;7208;49.826;6.004;2023-06-14T02:13:57;1.30;;;1.20;;
14247;SDS011;7208;49.826;6.004;2023-06-14T02:16:24;1.13;;;1.07;;
14247;SDS011;7208;49.826;6.004;2023-06-14T02:18:53;1.30;;;1.20;;
14247;SDS011;7208;49.826;6.004;2023-06-14T02:21:19;1.33;;;1.20;;
14247;SDS011;7208;49.826;6.004;2023-06-14T02:23:45;1.07;;;1.07;;
14247;SDS011;7208;49.826;6.004;2023-06-14T02:26:11;2.47;;;1.90;;
14247;SDS011;7208;49.826;6.004;2023-06-14T02:28:37;1.43;;;1.30;;
14247;SDS011;7208;49.826;6.004;2023-06-14T02:31:03;1.27;;;1.17;;
14247;SDS011;7208;49.826;6.004;2023-06-14T02:33:29;1.37;;;1.27;;
14247;SDS011;7208;49.826;6.004;2023-06-14T02:35:55;1.70;;;1.60;;
14247;SDS011;7208;49.826;6.004;2023-06-14T02:38:22;1.33;;;1.23;;
14247;SDS011;7208;49.826;6.004;2023-06-14T02:40:48;1.93;;;1.33;;
14247;SDS011;7208;49.826;6.004;2023-06-14T02:43:14;1.40;;;1.30;;
14247;SDS011;7208;49.826;6.004;2023-06-14T02:45:42;1.17;;;1.03;;
14247;SDS011;7208;49.826;6.004;2023-06-14T02:48:08;1.50;;;1.40;;
14247;SDS011;7208;49.826;6.004;2023-06-14T02:50:34;1.37;;;1.27;;
14247;SDS011;7208;49.826;6.004;2023-06-14T02:53:00;1.90;;;1.73;;
14247;SDS011;7208;49.826;6.004;2023-06-14T02:55:28;1.37;;;1.27;;
14247;SDS011;7208;49.826;6.004;2023-06-14T02:57:54;1.20;;;1.10;;
14247;SDS011;7208;49.826;6.004;2023-06-14T03:00:20;1.33;;;1.23;;
14247;SDS011;7208;49.826;6.004;2023-06-14T03:02:46;1.37;;;1.27;;
14247;SDS011;7208;49.826;6.004;2023-06-14T03:05:12;1.23;;;1.13;;
14247;SDS011;7208;49.826;6.004;2023-06-14T03:07:39;2.53;;;2.03;;
14247;SDS011;7208;49.826;6.004;2023-06-14T03:10:07;1.30;;;1.20;;
14247;SDS011;7208;49.826;6.004;2023-06-14T03:12:34;2.10;;;1.50;;
14247;SDS011;7208;49.826;6.004;2023-06-14T03:15:01;1.50;;;1.40;;
14247;SDS011;7208;49.826;6.004;2023-06-14T03:17:27;1.13;;;1.03;;
14247;SDS011;7208;49.826;6.004;2023-06-14T03:19:55;1.43;;;1.20;;
14247;SDS011;7208;49.826;6.004;2023-06-14T03:22:21;1.50;;;1.40;;
14247;SDS011;7208;49.826;6.004;2023-06-14T03:24:47;2.70;;;1.20;;
14247;SDS011;7208;49.826;6.004;2023-06-14T03:27:13;1.50;;;1.40;;
14247;SDS011;7208;49.826;6.004;2023-06-14T03:29:39;1.60;;;1.50;;
14247;SDS011;7208;49.826;6.004;2023-06-14T03:32:06;1.60;;;1.10;;
14247;SDS011;7208;49.826;6.004;2023-06-14T03:34:32;2.40;;;1.90;;
14247;SDS011;7208;49.826;6.004;2023-06-14T03:36:58;1.43;;;1.33;;
14247;SDS011;7208;49.826;6.004;2023-06-14T03:39:24;1.53;;;1.43;;
14247;SDS011;7208;49.826;6.004;2023-06-14T03:41:50;2.30;;;2.10;;
14247;SDS011;7208;49.826;6.004;2023-06-14T03:44:17;2.00;;;1.77;;
14247;SDS011;7208;49.826;6.004;2023-06-14T03:46:43;1.73;;;1.20;;
14247;SDS011;7208;49.826;6.004;2023-06-14T03:49:10;2.20;;;1.63;;
14247;SDS011;7208;49.826;6.004;2023-06-14T03:51:36;1.60;;;1.50;;
14247;SDS011;7208;49.826;6.004;2023-06-14T03:54:02;2.57;;;1.40;;
14247;SDS011;7208;49.826;6.004;2023-06-14T03:56:28;1.80;;;1.70;;
14247;SDS011;7208;49.826;6.004;2023-06-14T03:58:54;1.70;;;1.60;;
14247;SDS011;7208;49.826;6.004;2023-06-14T04:01:21;1.87;;;1.50;;
14247;SDS011;7208;49.826;6.004;2023-06-14T04:03:55;1.60;;;1.50;;
14247;SDS011;7208;49.826;6.004;2023-06-14T04:06:21;1.57;;;1.47;;
14247;SDS011;7208;49.826;6.004;2023-06-14T04:08:50;2.40;;;1.63;;
14247;SDS011;7208;49.826;6.004;2023-06-14T04:11:16;1.53;;;1.43;;
14247;SDS011;7208;49.826;6.004;2023-06-14T04:13:42;2.17;;;1.57;;
14247;SDS011;7208;49.826;6.004;2023-06-14T04:16:08;2.20;;;2.00;;
14247;SDS011;7208;49.826;6.004;2023-06-14T04:18:34;1.47;;;1.37;;
14247;SDS011;7208;49.826;6.004;2023-06-14T04:21:00;1.80;;;1.67;;
14247;SDS011;7208;49.826;6.004;2023-06-14T04:23:26;2.10;;;1.70;;
14247;SDS011;7208;49.826;6.004;2023-06-14T04:25:53;1.47;;;1.37;;
14247;SDS011;7208;49.826;6.004;2023-06-14T04:28:19;1.50;;;1.40;;
14247;SDS011;7208;49.826;6.004;2023-06-14T04:30:50;1.73;;;1.50;;
14247;SDS011;7208;49.826;6.004;2023-06-14T04:33:18;1.67;;;1.57;;
14247;SDS011;7208;49.826;6.004;2023-06-14T04:35:44;1.60;;;1.50;;
14247;SDS011;7208;49.826;6.004;2023-06-14T04:38:12;2.07;;;1.57;;
14247;SDS011;7208;49.826;6.004;2023-06-14T04:40:41;1.60;;;1.50;;
14247;SDS011;7208;49.826;6.004;2023-06-14T04:43:11;1.67;;;1.57;;
14247;SDS011;7208;49.826;6.004;2023-06-14T04:45:37;1.90;;;1.50;;
14247;SDS011;7208;49.826;6.004;2023-06-14T04:48:04;3.83;;;2.00;;
14247;SDS011;7208;49.826;6.004;2023-06-14T04:50:31;1.53;;;1.43;;
14247;SDS011;7208;49.826;6.004;2023-06-14T04:52:58;1.90;;;1.80;;
14247;SDS011;7208;49.826;6.004;2023-06-14T04:55:24;1.77;;;1.53;;
14247;SDS011;7208;49.826;6.004;2023-06-14T04:57:51;1.50;;;1.40;;
14247;SDS011;7208;49.826;6.004;2023-06-14T05:00:19;1.80;;;1.70;;
14247;SDS011;7208;49.826;6.004;2023-06-14T05:02:45;1.60;;;1.50;;
14247;SDS011;7208;49.826;6.004;2023-06-14T05:05:12;1.83;;;1.67;;
14247;SDS011;7208;49.826;6.004;2023-06-14T05:07:38;1.90;;;1.63;;
14247;SDS011;7208;49.826;6.004;2023-06-14T05:10:04;1.67;;;1.57;;
14247;SDS011;7208;49.826;6.004;2023-06-14T05:12:31;1.90;;;1.80;;
14247;SDS011;7208;49.826;6.004;2023-06-14T05:14:57;4.10;;;1.60;;
14247;SDS011;7208;49.826;6.004;2023-06-14T05:17:23;1.80;;;1.70;;
14247;SDS011;7208;49.826;6.004;2023-06-14T05:19:49;1.80;;;1.70;;
14247;SDS011;7208;49.826;6.004;2023-06-14T05:22:15;1.57;;;1.47;;
14247;SDS011;7208;49.826;6.004;2023-06-14T05:24:41;1.70;;;1.43;;
14247;SDS011;7208;49.826;6.004;2023-06-14T05:27:07;1.73;;;1.50;;
14247;SDS011;7208;49.826;6.004;2023-06-14T05:29:33;1.50;;;1.40;;
14247;SDS011;7208;49.826;6.004;2023-06-14T05:31:59;1.83;;;1.70;;
14247;SDS011;7208;49.826;6.004;2023-06-14T05:34:25;1.90;;;1.80;;
14247;SDS011;7208;49.826;6.004;2023-06-14T05:36:51;1.80;;;1.50;;
14247;SDS011;7208;49.826;6.004;2023-06-14T05:39:17;1.83;;;1.70;;
14247;SDS011;7208;49.826;6.004;2023-06-14T05:41:43;1.57;;;1.47;;
14247;SDS011;7208;49.826;6.004;2023-06-14T05:44:09;1.53;;;1.43;;
14247;SDS011;7208;49.826;6.004;2023-06-14T05:46:35;1.60;;;1.50;;
14247;SDS011;7208;49.826;6.004;2023-06-14T05:49:01;2.27;;;1.77;;
14247;SDS011;7208;49.826;6.004;2023-06-14T05:51:27;1.77;;;1.67;;
14247;SDS011;7208;49.826;6.004;2023-06-14T05:53:53;1.33;;;1.23;;
14247;SDS011;7208;49.826;6.004;2023-06-14T05:56:19;1.40;;;1.30;;
14247;SDS011;7208;49.826;6.004;2023-06-14T05:58:46;1.60;;;1.50;;
14247;SDS011;7208;49.826;6.004;2023-06-14T06:01:12;2.00;;;1.80;;
14247;SDS011;7208;49.826;6.004;2023-06-14T06:03:39;2.00;;;1.90;;
14247;SDS011;7208;49.826;6.004;2023-06-14T06:06:05;1.43;;;1.33;;
14247;SDS011;7208;49.826;6.004;2023-06-14T06:08:31;1.73;;;1.63;;
14247;SDS011;7208;49.826;6.004;2023-06-14T06:10:57;1.33;;;1.23;;
14247;SDS011;7208;49.826;6.004;2023-06-14T06:13:24;1.53;;;1.37;;
14247;SDS011;7208;49.826;6.004;2023-06-14T06:15:50;1.70;;;1.60;;
14247;SDS011;7208;49.826;6.004;2023-06-14T06:18:16;1.33;;;1.23;;
14247;SDS011;7208;49.826;6.004;2023-06-14T06:20:42;1.50;;;1.40;;
14247;SDS011;7208;49.826;6.004;2023-06-14T06:23:09;1.53;;;1.43;;
14247;SDS011;7208;49.826;6.004;2023-06-14T06:25:35;2.03;;;1.80;;
14247;SDS011;7208;49.826;6.004;2023-06-14T06:28:01;2.30;;;1.60;;
14247;SDS011;7208;49.826;6.004;2023-06-14T06:30:28;1.90;;;1.63;;
14247;SDS011;7208;49.826;6.004;2023-06-14T06:32:54;1.63;;;1.47;;
14247;SDS011;7208;49.826;6.004;2023-06-14T06:35:20;1.40;;;1.30;;
14247;SDS011;7208;49.826;6.004;2023-06-14T06:37:46;1.60;;;1.47;;
14247;SDS011;7208;49.826;6.004;2023-06-14T06:40:12;1.73;;;1.60;;
14247;SDS011;7208;49.826;6.004;2023-06-14T06:42:39;1.47;;;1.37;;
14247;SDS011;7208;49.826;6.004;2023-06-14T06:45:05;1.10;;;1.10;;
14247;SDS011;7208;49.826;6.004;2023-06-14T06:47:31;1.50;;;1.40;;
14247;SDS011;7208;49.826;6.004;2023-06-14T06:49:57;1.40;;;1.30;;
14247;SDS011;7208;49.826;6.004;2023-06-14T06:52:23;1.60;;;1.50;;
14247;SDS011;7208;49.826;6.004;2023-06-14T06:54:49;1.63;;;1.53;;
14247;SDS011;7208;49.826;6.004;2023-06-14T06:57:19;2.17;;;1.73;;
14247;SDS011;7208;49.826;6.004;2023-06-14T06:59:47;1.43;;;1.33;;
14247;SDS011;7208;49.826;6.004;2023-06-14T07:02:13;1.67;;;1.57;;
14247;SDS011;7208;49.826;6.004;2023-06-14T07:04:39;1.90;;;1.77;;
14247;SDS011;7208;49.826;6.004;2023-06-14T07:07:06;1.53;;;1.43;;
14247;SDS011;7208;49.826;6.004;2023-06-14T07:09:34;1.57;;;1.30;;
14247;SDS011;7208;49.826;6.004;2023-06-14T07:12:00;2.00;;;1.80;;
14247;SDS011;7208;49.826;6.004;2023-06-14T07:14:26;1.20;;;1.20;;
14247;SDS011;7208;49.826;6.004;2023-06-14T07:16:52;2.03;;;1.40;;
14247;SDS011;7208;49.826;6.004;2023-06-14T07:19:18;2.20;;;2.00;;
14247;SDS011;7208;49.826;6.004;2023-06-14T07:21:44;1.57;;;1.47;;
14247;SDS011;7208;49.826;6.004;2023-06-14T07:24:10;1.33;;;1.27;;
14247;SDS011;7208;49.826;6.004;2023-06-14T07:26:36;3.20;;;1.77;;
14247;SDS011;7208;49.826;6.004;2023-06-14T07:29:02;1.80;;;1.70;;
14247;SDS011;7208;49.826;6.004;2023-06-14T07:31:29;1.90;;;1.70;;
14247;SDS011;7208;49.826;6.004;2023-06-14T07:33:55;1.47;;;1.37;;
14247;SDS011;7208;49.826;6.004;2023-06-14T07:36:21;1.70;;;1.57;;
14247;SDS011;7208;49.826;6.004;2023-06-14T07:38:47;1.47;;;1.37;;
14247;SDS011;7208;49.826;6.004;2023-06-14T07:41:13;2.70;;;1.63;;
14247;SDS011;7208;49.826;6.004;2023-06-14T07:43:39;2.10;;;1.90;;
14247;SDS011;7208;49.826;6.004;2023-06-14T07:46:05;1.70;;;1.60;;
14247;SDS011;7208;49.826;6.004;2023-06-14T07:48:32;2.03;;;1.80;;
14247;SDS011;7208;49.826;6.004;2023-06-14T07:50:58;1.63;;;1.53;;
14247;SDS011;7208;49.826;6.004;2023-06-14T07:53:24;1.50;;;1.40;;
14247;SDS011;7208;49.826;6.004;2023-06-14T07:55:50;1.70;;;1.60;;
14247;SDS011;7208;49.826;6.004;2023-06-14T07:58:16;1.60;;;1.50;;
14247;SDS011;7208;49.826;6.004;2023-06-14T08:00:42;1.60;;;1.50;;
14247;SDS011;7208;49.826;6.004;2023-06-14T08:03:09;1.83;;;1.73;;
14247;SDS011;7208;49.826;6.004;2023-06-14T08:05:35;1.57;;;1.47;;
14247;SDS011;7208;49.826;6.004;2023-06-14T08:08:01;1.67;;;1.57;;
14247;SDS011;7208;49.826;6.004;2023-06-14T08:10:27;2.07;;;1.40;;
14247;SDS011;7208;49.826;6.004;2023-06-14T08:12:53;1.60;;;1.50;;
14247;SDS011;7208;49.826;6.004;2023-06-14T08:15:19;1.80;;;1.60;;
14247;SDS011;7208;49.826;6.004;2023-06-14T08:17:45;1.53;;;1.43;;
14247;SDS011;7208;49.826;6.004;2023-06-14T08:20:11;1.43;;;1.33;;
14247;SDS011;7208;49.826;6.004;2023-06-14T08:22:38;1.50;;;1.40;;
14247;SDS011;7208;49.826;6.004;2023-06-14T08:25:07;2.37;;;1.77;;
14247;SDS011;7208;49.826;6.004;2023-06-14T08:27:33;2.00;;;1.80;;
14247;SDS011;7208;49.826;6.004;2023-06-14T08:29:59;1.60;;;1.50;;
14247;SDS011;7208;49.826;6.004;2023-06-14T08:32:27;1.63;;;1.53;;
14247;SDS011;7208;49.826;6.004;2023-06-14T08:34:53;1.73;;;1.63;;
14247;SDS011;7208;49.826;6.004;2023-06-14T08:37:19;1.73;;;1.63;;
14247;SDS011;7208;49.826;6.004;2023-06-14T08:39:45;1.30;;;1.20;;
14247;SDS011;7208;49.826;6.004;2023-06-14T08:42:11;1.80;;;1.70;;
14247;SDS011;7208;49.826;6.004;2023-06-14T08:44:38;2.03;;;1.60;;
14247;SDS011;7208;49.826;6.004;2023-06-14T08:47:04;1.40;;;1.30;;
14247;SDS011;7208;49.826;6.004;2023-06-14T08:49:31;1.73;;;1.63;;
14247;SDS011;7208;49.826;6.004;2023-06-14T08:51:59;1.73;;;1.55;;
14247;SDS011;7208;49.826;6.004;2023-06-14T08:54:25;1.60;;;1.50;;
14247;SDS011;7208;49.826;6.004;2023-06-14T08:56:54;1.20;;;1.10;;
14247;SDS011;7208;49.826;6.004;2023-06-14T08:59:23;1.50;;;1.40;;
14247;SDS011;7208;49.826;6.004;2023-06-14T09:01:50;1.57;;;1.47;;
14247;SDS011;7208;49.826;6.004;2023-06-14T09:04:17;2.23;;;1.40;;
14247;SDS011;7208;49.826;6.004;2023-06-14T09:06:45;1.40;;;1.30;;
14247;SDS011;7208;49.826;6.004;2023-06-14T09:09:11;1.60;;;1.50;;
14247;SDS011;7208;49.826;6.004;2023-06-14T09:11:37;1.55;;;1.40;;
14247;SDS011;7208;49.826;6.004;2023-06-14T09:14:03;1.40;;;1.30;;
14247;SDS011;7208;49.826;6.004;2023-06-14T09:16:32;2.05;;;1.50;;
14247;SDS011;7208;49.826;6.004;2023-06-14T09:18:58;2.50;;;1.70;;
14247;SDS011;7208;49.826;6.004;2023-06-14T09:21:24;1.50;;;1.40;;
14247;SDS011;7208;49.826;6.004;2023-06-14T09:23:50;1.70;;;1.60;;
14247;SDS011;7208;49.826;6.004;2023-06-14T09:26:18;1.25;;;1.13;;
14247;SDS011;7208;49.826;6.004;2023-06-14T09:28:45;1.25;;;1.17;;
14247;SDS011;7208;49.826;6.004;2023-06-14T09:31:12;1.20;;;1.10;;
14247;SDS011;7208;49.826;6.004;2023-06-14T09:33:38;1.40;;;1.30;;
14247;SDS011;7208;49.826;6.004;2023-06-14T09:36:11;1.50;;;1.40;;
14247;SDS011;7208;49.826;6.004;2023-06-14T09:38:39;1.33;;;1.23;;
14247;SDS011;7208;49.826;6.004;2023-06-14T09:41:05;1.25;;;1.15;;
14247;SDS011;7208;49.826;6.004;2023-06-14T09:43:32;1.15;;;1.10;;
14247;SDS011;7208;49.826;6.004;2023-06-14T09:45:59;1.33;;;1.23;;
14247;SDS011;7208;49.826;6.004;2023-06-14T09:48:25;1.20;;;1.10;;
14247;SDS011;7208;49.826;6.004;2023-06-14T09:50:51;1.08;;;1.08;;
14247;SDS011;7208;49.826;6.004;2023-06-14T09:53:19;1.20;;;1.10;;
14247;SDS011;7208;49.826;6.004;2023-06-14T09:55:47;1.17;;;1.13;;
14247;SDS011;7208;49.826;6.004;2023-06-14T09:58:15;1.77;;;1.67;;
14247;SDS011;7208;49.826;6.004;2023-06-14T10:00:42;1.48;;;1.38;;
14247;SDS011;7208;49.826;6.004;2023-06-14T10:03:16;1.30;;;1.20;;
14247;SDS011;7208;49.826;6.004;2023-06-14T10:05:47;1.33;;;1.20;;
14247;SDS011;7208;49.826;6.004;2023-06-14T10:08:15;1.45;;;1.35;;
14247;SDS011;7208;49.826;6.004;2023-06-14T10:10:42;1.45;;;1.35;;
14247;SDS011;7208;49.826;6.004;2023-06-14T10:13:08;1.48;;;1.38;;
14247;SDS011;7208;49.826;6.004;2023-06-14T10:18:05;1.25;;;1.00;;
14247;SDS011;7208;49.826;6.004;2023-06-14T10:20:39;1.08;;;1.00;;
14247;SDS011;7208;49.826;6.004;2023-06-14T10:23:13;1.40;;;1.30;;
14247;SDS011;7208;49.826;6.004;2023-06-14T10:25:40;1.52;;;1.25;;
14247;SDS011;7208;49.826;6.004;2023-06-14T10:28:17;1.10;;;1.00;;
14247;SDS011;7208;49.826;6.004;2023-06-14T10:33:29;1.52;;;1.40;;
14247;SDS011;7208;49.826;6.004;2023-06-14T10:36:24;1.58;;;1.40;;
14247;SDS011;7208;49.826;6.004;2023-06-14T10:38:59;1.30;;;1.20;;
14247;SDS011;7208;49.826;6.004;2023-06-14T10:41:29;1.30;;;1.20;;
14247;SDS011;7208;49.826;6.004;2023-06-14T10:46:39;1.17;;;1.00;;
14247;SDS011;7208;49.826;6.004;2023-06-14T10:49:05;1.50;;;1.40;;
14247;SDS011;7208;49.826;6.004;2023-06-14T10:51:38;1.05;;;1.05;;
14247;SDS011;7208;49.826;6.004;2023-06-14T10:54:14;1.58;;;1.48;;
14247;SDS011;7208;49.826;6.004;2023-06-14T10:56:47;2.80;;;1.40;;
14247;SDS011;7208;49.826;6.004;2023-06-14T10:59:13;1.10;;;1.00;;
14247;SDS011;7208;49.826;6.004;2023-06-14T11:04:15;1.63;;;1.52;;
14247;SDS011;7208;49.826;6.004;2023-06-14T11:06:46;1.27;;;1.17;;
14247;SDS011;7208;49.826;6.004;2023-06-14T11:09:51;1.75;;;1.42;;
14247;SDS011;7208;49.826;6.004;2023-06-14T11:12:06;1.20;;;1.17;;
14247;SDS011;7208;49.826;6.004;2023-06-14T11:14:35;1.55;;;1.45;;
14247;SDS011;7208;49.826;6.004;2023-06-14T11:17:01;1.40;;;1.30;;
14247;SDS011;7208;49.826;6.004;2023-06-14T11:19:27;1.40;;;1.30;;
14247;SDS011;7208;49.826;6.004;2023-06-14T11:21:54;1.10;;;1.00;;
14247;SDS011;7208;49.826;6.004;2023-06-14T11:24:20;1.30;;;1.20;;
14247;SDS011;7208;49.826;6.004;2023-06-14T11:26:46;1.30;;;1.20;;
14247;SDS011;7208;49.826;6.004;2023-06-14T11:29:14;1.60;;;1.50;;
14247;SDS011;7208;49.826;6.004;2023-06-14T11:31:43;1.20;;;1.20;;
14247;SDS011;7208;49.826;6.004;2023-06-14T11:34:13;1.40;;;1.30;;
14247;SDS011;7208;49.826;6.004;2023-06-14T11:36:39;1.33;;;1.23;;
14247;SDS011;7208;49.826;6.004;2023-06-14T11:39:06;1.27;;;1.17;;
14247;SDS011;7208;49.826;6.004;2023-06-14T11:41:32;1.58;;;1.48;;
14247;SDS011;7208;49.826;6.004;2023-06-14T11:44:00;1.48;;;1.25;;
14247;SDS011;7208;49.826;6.004;2023-06-14T11:46:27;1.33;;;1.23;;
14247;SDS011;7208;49.826;6.004;2023-06-14T11:48:53;1.27;;;1.17;;
14247;SDS011;7208;49.826;6.004;2023-06-14T11:51:19;1.25;;;1.13;;
14247;SDS011;7208;49.826;6.004;2023-06-14T11:53:45;1.40;;;1.00;;
14247;SDS011;7208;49.826;6.004;2023-06-14T11:56:12;1.17;;;1.10;;
14247;SDS011;7208;49.826;6.004;2023-06-14T11:58:38;1.25;;;1.15;;
14247;SDS011;7208;49.826;6.004;2023-06-14T12:01:05;1.10;;;1.00;;
14247;SDS011;7208;49.826;6.004;2023-06-14T12:03:31;1.00;;;1.00;;
14247;SDS011;7208;49.826;6.004;2023-06-14T12:06:04;1.50;;;1.40;;
14247;SDS011;7208;49.826;6.004;2023-06-14T12:08:32;1.20;;;0.95;;
14247;SDS011;7208;49.826;6.004;2023-06-14T12:11:10;1.30;;;1.20;;
14247;SDS011;7208;49.826;6.004;2023-06-14T12:13:39;1.00;;;1.00;;
14247;SDS011;7208;49.826;6.004;2023-06-14T12:16:09;0.90;;;0.90;;
14247;SDS011;7208;49.826;6.004;2023-06-14T12:18:36;1.13;;;1.05;;
14247;SDS011;7208;49.826;6.004;2023-06-14T12:21:03;1.17;;;1.08;;
14247;SDS011;7208;49.826;6.004;2023-06-14T12:23:47;1.00;;;1.00;;
14247;SDS011;7208;49.826;6.004;2023-06-14T12:26:17;1.20;;;1.10;;
14247;SDS011;7208;49.826;6.004;2023-06-14T12:28:47;1.00;;;1.00;;
14247;SDS011;7208;49.826;6.004;2023-06-14T12:31:13;1.10;;;1.00;;
14247;SDS011;7208;49.826;6.004;2023-06-14T12:33:40;1.50;;;1.40;;
14247;SDS011;7208;49.826;6.004;2023-06-14T12:36:07;1.58;;;1.23;;
14247;SDS011;7208;49.826;6.004;2023-06-14T12:38:33;1.02;;;1.02;;
14247;SDS011;7208;49.826;6.004;2023-06-14T12:40:59;1.15;;;1.10;;
14247;SDS011;7208;49.826;6.004;2023-06-14T12:43:25;1.00;;;1.00;;
14247;SDS011;7208;49.826;6.004;2023-06-14T12:45:51;0.68;;;0.68;;
14247;SDS011;7208;49.826;6.004;2023-06-14T12:48:17;1.13;;;1.02;;
14247;SDS011;7208;49.826;6.004;2023-06-14T12:50:44;0.80;;;0.80;;
14247;SDS011;7208;49.826;6.004;2023-06-14T12:53:10;1.30;;;1.00;;
14247;SDS011;7208;49.826;6.004;2023-06-14T12:55:36;1.20;;;1.10;;
14247;SDS011;7208;49.826;6.004;2023-06-14T12:58:02;0.80;;;0.80;;
14247;SDS011;7208;49.826;6.004;2023-06-14T13:00:28;0.80;;;0.80;;
14247;SDS011;7208;49.826;6.004;2023-06-14T13:02:55;1.08;;;1.08;;
14247;SDS011;7208;49.826;6.004;2023-06-14T13:05:21;1.25;;;1.15;;
14247;SDS011;7208;49.826;6.004;2023-06-14T13:07:48;0.88;;;0.88;;
14247;SDS011;7208;49.826;6.004;2023-06-14T13:10:14;0.80;;;0.80;;
14247;SDS011;7208;49.826;6.004;2023-06-14T13:12:40;0.95;;;0.90;;
14247;SDS011;7208;49.826;6.004;2023-06-14T13:15:06;0.95;;;0.90;;
14247;SDS011;7208;49.826;6.004;2023-06-14T13:17:33;1.58;;;1.10;;
14247;SDS011;7208;49.826;6.004;2023-06-14T13:20:03;0.80;;;0.80;;
14247;SDS011;7208;49.826;6.004;2023-06-14T13:22:29;1.08;;;0.98;;
14247;SDS011;7208;49.826;6.004;2023-06-14T13:24:55;0.95;;;0.95;;
14247;SDS011;7208;49.826;6.004;2023-06-14T13:27:21;0.70;;;0.70;;
14247;SDS011;7208;49.826;6.004;2023-06-14T13:29:49;1.17;;;0.93;;
14247;SDS011;7208;49.826;6.004;2023-06-14T13:32:15;1.13;;;1.02;;
14247;SDS011;7208;49.826;6.004;2023-06-14T13:34:41;0.93;;;0.93;;
14247;SDS011;7208;49.826;6.004;2023-06-14T13:37:07;1.00;;;1.00;;
14247;SDS011;7208;49.826;6.004;2023-06-14T13:39:33;1.10;;;1.00;;
14247;SDS011;7208;49.826;6.004;2023-06-14T13:42:02;0.90;;;0.90;;
14247;SDS011;7208;49.826;6.004;2023-06-14T13:44:28;0.80;;;0.80;;
14247;SDS011;7208;49.826;6.004;2023-06-14T13:46:54;1.17;;;1.10;;
14247;SDS011;7208;49.826;6.004;2023-06-14T13:49:20;0.77;;;0.77;;
14247;SDS011;7208;49.826;6.004;2023-06-14T13:51:46;1.60;;;1.50;;
14247;SDS011;7208;49.826;6.004;2023-06-14T13:54:13;0.75;;;0.65;;
14247;SDS011;7208;49.826;6.004;2023-06-14T13:56:40;0.70;;;0.70;;
14247;SDS011;7208;49.826;6.004;2023-06-14T13:59:06;1.30;;;1.13;;
14247;SDS011;7208;49.826;6.004;2023-06-14T14:01:32;0.90;;;0.90;;
14247;SDS011;7208;49.826;6.004;2023-06-14T14:03:58;1.13;;;1.02;;
14247;SDS011;7208;49.826;6.004;2023-06-14T14:06:25;1.10;;;1.00;;
14247;SDS011;7208;49.826;6.004;2023-06-14T14:08:51;0.85;;;0.85;;
14247;SDS011;7208;49.826;6.004;2023-06-14T14:11:18;0.75;;;0.75;;
14247;SDS011;7208;49.826;6.004;2023-06-14T14:13:45;0.80;;;0.80;;
14247;SDS011;7208;49.826;6.004;2023-06-14T14:16:12;0.93;;;0.93;;
14247;SDS011;7208;49.826;6.004;2023-06-14T14:18:38;0.73;;;0.73;;
14247;SDS011;7208;49.826;6.004;2023-06-14T14:21:04;0.93;;;0.77;;
14247;SDS011;7208;49.826;6.004;2023-06-14T14:23:31;0.70;;;0.70;;
14247;SDS011;7208;49.826;6.004;2023-06-14T14:25:57;0.70;;;0.70;;
14247;SDS011;7208;49.826;6.004;2023-06-14T14:28:25;1.58;;;0.85;;
14247;SDS011;7208;49.826;6.004;2023-06-14T14:30:51;1.00;;;0.90;;
14247;SDS011;7208;49.826;6.004;2023-06-14T14:33:18;0.77;;;0.77;;
14247;SDS011;7208;49.826;6.004;2023-06-14T14:35:45;0.93;;;0.90;;
14247;SDS011;7208;49.826;6.004;2023-06-14T14:38:11;0.70;;;0.70;;
14247;SDS011;7208;49.826;6.004;2023-06-14T14:40:38;0.88;;;0.88;;
14247;SDS011;7208;49.826;6.004;2023-06-14T14:43:05;1.00;;;1.00;;
14247;SDS011;7208;49.826;6.004;2023-06-14T14:45:31;0.90;;;0.90;;
14247;SDS011;7208;49.826;6.004;2023-06-14T14:47:57;0.80;;;0.80;;
14247;SDS011;7208;49.826;6.004;2023-06-14T14:50:24;0.80;;;0.80;;
14247;SDS011;7208;49.826;6.004;2023-06-14T14:52:50;0.80;;;0.80;;
14247;SDS011;7208;49.826;6.004;2023-06-14T14:55:16;0.75;;;0.75;;
14247;SDS011;7208;49.826;6.004;2023-06-14T14:57:43;0.90;;;0.70;;
14247;SDS011;7208;49.826;6.004;2023-06-14T15:00:09;0.93;;;0.93;;
14247;SDS011;7208;49.826;6.004;2023-06-14T15:02:35;0.80;;;0.80;;
14247;SDS011;7208;49.826;6.004;2023-06-14T15:05:01;0.80;;;0.80;;
14247;SDS011;7208;49.826;6.004;2023-06-14T15:07:27;0.70;;;0.70;;
14247;SDS011;7208;49.826;6.004;2023-06-14T15:09:54;0.70;;;0.70;;
14247;SDS011;7208;49.826;6.004;2023-06-14T15:12:20;0.80;;;0.80;;
14247;SDS011;7208;49.826;6.004;2023-06-14T15:14:49;0.73;;;0.73;;